createdAt,value
2023-05-01T00:01:43.349Z,7.32
2023-05-01T00:04:10.250Z,7.25
2023-05-01T00:06:39.937Z,7.65
2023-05-01T00:09:07.535Z,7.69
2023-05-01T00:11:35.107Z,7.85
2023-05-01T00:14:01.733Z,7.62
2023-05-01T00:16:28.268Z,7.40
2023-05-01T00:18:55.264Z,6.92
2023-05-01T00:21:24.862Z,7.00
2023-05-01T00:23:52.042Z,7.15
2023-05-01T00:26:18.562Z,6.80
2023-05-01T00:28:47.342Z,6.85
2023-05-01T00:31:13.926Z,6.54
2023-05-01T00:33:40.690Z,6.54
2023-05-01T00:36:07.211Z,6.18
2023-05-01T00:38:33.861Z,6.66
2023-05-01T00:41:00.510Z,6.66
2023-05-01T00:43:27.166Z,6.54
2023-05-01T00:45:53.769Z,6.63
2023-05-01T00:48:20.773Z,7.04
2023-05-01T00:50:47.726Z,6.94
2023-05-01T00:53:14.565Z,6.99
2023-05-01T00:55:42.015Z,7.16
2023-05-01T00:58:08.949Z,7.31
2023-05-01T01:00:35.522Z,7.28
2023-05-01T01:03:02.508Z,7.26
2023-05-01T01:05:30.396Z,7.12
2023-05-01T01:08:00.000Z,7.06
2023-05-01T01:10:46.491Z,6.85
2023-05-01T01:13:20.290Z,6.88
2023-05-01T01:15:46.950Z,6.90
2023-05-01T01:18:19.267Z,7.10
2023-05-01T01:21:07.498Z,7.11
2023-05-01T01:23:43.185Z,7.04
2023-05-01T01:26:38.829Z,6.81
2023-05-01T01:29:37.998Z,6.70
2023-05-01T01:32:11.996Z,6.36
2023-05-01T01:34:47.725Z,6.08
2023-05-01T01:37:17.766Z,6.52
2023-05-01T01:40:04.358Z,5.80
2023-05-01T01:42:36.217Z,5.58
2023-05-01T01:45:05.234Z,5.75
2023-05-01T01:47:33.255Z,5.57
2023-05-01T01:50:04.193Z,6.07
2023-05-01T01:52:31.374Z,6.37
2023-05-01T01:55:05.303Z,6.63
2023-05-01T01:57:32.466Z,6.33
2023-05-01T01:59:59.107Z,6.04
2023-05-01T02:02:27.600Z,5.72
2023-05-01T02:04:57.214Z,5.96
2023-05-01T02:07:28.650Z,6.23
2023-05-01T02:09:56.526Z,6.35
2023-05-01T02:12:23.534Z,6.54
2023-05-01T02:14:51.690Z,6.64
2023-05-01T02:17:20.519Z,6.41
2023-05-01T02:19:48.139Z,5.65
2023-05-01T02:22:15.856Z,5.34
2023-05-01T02:24:43.898Z,5.17
2023-05-01T02:27:31.002Z,5.52
2023-05-01T02:29:57.982Z,5.74
2023-05-01T02:32:25.285Z,6.10
2023-05-01T02:34:52.430Z,5.65
2023-05-01T02:37:19.303Z,5.57
2023-05-01T02:39:46.481Z,5.63
2023-05-01T02:42:16.111Z,5.61
2023-05-01T02:44:45.657Z,5.77
2023-05-01T02:47:15.922Z,6.14
2023-05-01T02:49:46.216Z,5.89
2023-05-01T02:52:13.015Z,5.52
2023-05-01T02:54:39.920Z,5.58
2023-05-01T02:57:06.612Z,5.67
2023-05-01T02:59:34.386Z,4.90
2023-05-01T03:02:01.202Z,4.30
2023-05-01T03:04:27.912Z,4.95
2023-05-01T03:06:55.150Z,5.30
2023-05-01T03:09:22.164Z,5.31
2023-05-01T03:11:48.996Z,5.73
2023-05-01T03:14:15.580Z,5.87
2023-05-01T03:16:42.539Z,5.97
2023-05-01T03:19:09.355Z,5.82
2023-05-01T03:21:37.046Z,5.40
2023-05-01T03:24:03.731Z,5.09
2023-05-01T03:26:31.154Z,5.13
2023-05-01T03:28:58.443Z,4.77
2023-05-01T03:31:26.148Z,4.45
2023-05-01T03:33:53.534Z,4.75
2023-05-01T03:36:20.214Z,5.00
2023-05-01T03:38:48.132Z,5.18
2023-05-01T03:41:33.363Z,5.10
2023-05-01T03:44:09.711Z,4.53
2023-05-01T03:46:39.796Z,5.01
2023-05-01T03:49:09.016Z,5.05
2023-05-01T03:51:43.400Z,5.12
2023-05-01T03:54:10.470Z,4.39
2023-05-01T03:56:53.264Z,4.68
2023-05-01T03:59:20.712Z,4.81
2023-05-01T04:01:47.263Z,5.13
2023-05-01T04:04:14.104Z,5.23
2023-05-01T04:06:45.237Z,5.52
2023-05-01T04:09:12.387Z,5.12
2023-05-01T04:11:38.936Z,5.22
2023-05-01T04:14:05.568Z,4.88
2023-05-01T04:16:32.441Z,4.43
2023-05-01T04:18:59.128Z,4.33
2023-05-01T04:21:26.801Z,4.97
2023-05-01T04:23:53.639Z,4.53
2023-05-01T04:26:20.479Z,4.67
2023-05-01T04:28:47.157Z,4.68
2023-05-01T04:31:17.359Z,5.30
2023-05-01T04:33:44.000Z,5.26
2023-05-01T04:36:10.582Z,5.53
2023-05-01T04:38:37.426Z,5.88
2023-05-01T04:41:05.103Z,5.72
2023-05-01T04:43:31.763Z,6.08
2023-05-01T04:45:59.138Z,6.23
2023-05-01T04:48:26.392Z,6.29
2023-05-01T04:50:53.063Z,6.37
2023-05-01T04:53:20.282Z,6.35
2023-05-01T04:55:47.407Z,6.35
2023-05-01T04:58:15.949Z,6.68
2023-05-01T05:00:44.256Z,6.94
2023-05-01T05:03:19.761Z,6.80
2023-05-01T05:05:47.007Z,6.71
2023-05-01T05:08:13.648Z,7.05
2023-05-01T05:10:45.876Z,7.29
2023-05-01T05:13:26.037Z,7.52
2023-05-01T05:16:01.802Z,7.54
2023-05-01T05:18:28.703Z,7.63
2023-05-01T05:20:56.542Z,7.63
2023-05-01T05:23:23.689Z,7.68
2023-05-01T05:25:50.233Z,7.77
2023-05-01T05:28:17.245Z,7.88
2023-05-01T05:30:44.378Z,7.98
2023-05-01T05:33:15.144Z,7.87
2023-05-01T05:35:41.994Z,8.09
2023-05-01T05:38:08.676Z,8.06
2023-05-01T05:40:37.932Z,8.41
2023-05-01T05:43:05.096Z,8.51
2023-05-01T05:45:35.245Z,8.74
2023-05-01T05:48:02.244Z,9.04
2023-05-01T05:50:31.773Z,9.23
2023-05-01T05:52:58.812Z,9.35
2023-05-01T05:55:26.186Z,9.65
2023-05-01T05:58:03.512Z,9.98
2023-05-01T06:00:30.549Z,10.15
2023-05-01T06:03:00.675Z,10.27
2023-05-01T06:05:32.079Z,10.46
2023-05-01T06:07:58.706Z,10.60
2023-05-01T06:10:25.334Z,10.74
2023-05-01T06:12:57.664Z,11.01
2023-05-01T06:15:39.888Z,11.15
2023-05-01T06:18:14.406Z,11.36
2023-05-01T06:20:41.188Z,11.43
2023-05-01T06:23:09.753Z,11.32
2023-05-01T06:26:00.404Z,11.37
2023-05-01T06:28:27.037Z,11.37
2023-05-01T06:30:54.780Z,11.29
2023-05-01T06:33:22.686Z,11.43
2023-05-01T06:36:01.025Z,11.70
2023-05-01T06:38:27.659Z,11.72
2023-05-01T06:40:54.366Z,11.86
2023-05-01T06:43:21.052Z,11.96
2023-05-01T06:45:47.694Z,12.23
2023-05-01T06:48:14.346Z,12.63
2023-05-01T06:50:40.983Z,12.68
2023-05-01T06:53:07.634Z,12.89
2023-05-01T06:55:35.839Z,13.19
2023-05-01T06:58:07.009Z,13.26
2023-05-01T07:00:43.085Z,13.55
2023-05-01T07:03:09.890Z,13.61
2023-05-01T07:05:45.833Z,13.90
2023-05-01T07:08:14.484Z,14.10
2023-05-01T07:10:43.806Z,13.88
2023-05-01T07:13:10.540Z,14.16
2023-05-01T07:15:37.311Z,14.22
2023-05-01T07:18:06.193Z,14.37
2023-05-01T07:20:35.481Z,14.63
2023-05-01T07:23:06.614Z,15.19
2023-05-01T07:25:34.013Z,15.32
2023-05-01T07:28:02.848Z,15.44
2023-05-01T07:30:30.473Z,15.79
2023-05-01T07:33:00.341Z,15.97
2023-05-01T07:35:27.509Z,16.16
2023-05-01T07:38:03.640Z,16.15
2023-05-01T07:40:32.697Z,16.53
2023-05-01T07:42:59.382Z,16.41
2023-05-01T07:45:26.007Z,16.54
2023-05-01T07:47:57.166Z,16.82
2023-05-01T07:50:25.109Z,17.04
2023-05-01T07:52:51.818Z,16.90
2023-05-01T07:55:19.283Z,16.77
2023-05-01T07:57:45.838Z,17.23
2023-05-01T08:00:12.629Z,17.37
2023-05-01T08:02:41.787Z,17.15
2023-05-01T08:05:08.601Z,17.20
2023-05-01T08:07:38.151Z,17.47
2023-05-01T08:10:05.461Z,17.49
2023-05-01T08:12:32.330Z,17.88
2023-05-01T08:14:58.992Z,17.82
2023-05-01T08:17:28.055Z,17.54
2023-05-01T08:19:59.099Z,17.08
2023-05-01T08:22:25.896Z,17.62
2023-05-01T08:24:52.499Z,17.35
2023-05-01T08:27:19.194Z,17.63
2023-05-01T08:29:48.980Z,18.16
2023-05-01T08:32:15.739Z,18.30
2023-05-01T08:34:42.334Z,18.36
2023-05-01T08:37:08.906Z,18.49
2023-05-01T08:39:36.052Z,18.53
2023-05-01T08:42:03.554Z,18.68
2023-05-01T08:44:30.759Z,18.34
2023-05-01T08:47:18.850Z,18.46
2023-05-01T08:49:46.015Z,18.70
2023-05-01T08:52:13.291Z,18.61
2023-05-01T08:54:44.128Z,18.83
2023-05-01T08:57:14.229Z,19.15
2023-05-01T08:59:41.839Z,18.87
2023-05-01T09:02:11.267Z,19.34
2023-05-01T09:04:39.182Z,19.59
2023-05-01T09:07:06.034Z,19.87
2023-05-01T09:09:33.066Z,19.94
2023-05-01T09:12:03.313Z,20.01
2023-05-01T09:14:31.451Z,19.27
2023-05-01T09:16:59.089Z,19.40
2023-05-01T09:19:26.437Z,19.30
2023-05-01T09:21:56.262Z,19.53
2023-05-01T09:24:26.004Z,19.81
2023-05-01T09:26:57.636Z,19.28
2023-05-01T09:29:41.000Z,19.49
2023-05-01T09:32:20.464Z,19.87
2023-05-01T09:34:48.315Z,20.01
2023-05-01T09:37:28.455Z,19.97
2023-05-01T09:40:02.760Z,20.61
2023-05-01T09:42:30.228Z,20.71
2023-05-01T09:44:59.215Z,20.61
2023-05-01T09:47:28.674Z,20.75
2023-05-01T09:49:56.273Z,21.22
2023-05-01T09:52:26.723Z,20.49
2023-05-01T09:55:13.159Z,21.30
2023-05-01T09:57:40.069Z,21.04
2023-05-01T10:00:08.637Z,21.15
2023-05-01T10:02:36.226Z,21.31
2023-05-01T10:05:03.472Z,22.15
2023-05-01T10:07:33.423Z,22.22
2023-05-01T10:10:15.070Z,22.79
2023-05-01T10:12:41.721Z,23.10
2023-05-01T10:15:21.109Z,23.29
2023-05-01T10:17:52.464Z,23.12
2023-05-01T10:20:19.774Z,23.12
2023-05-01T10:22:46.741Z,22.71
2023-05-01T10:25:13.492Z,23.19
2023-05-01T10:27:41.108Z,23.20
2023-05-01T10:30:10.988Z,23.55
2023-05-01T10:32:38.821Z,23.10
2023-05-01T10:35:25.696Z,23.52
2023-05-01T10:38:02.533Z,23.51
2023-05-01T10:40:48.301Z,23.57
2023-05-01T10:43:19.540Z,23.61
2023-05-01T10:45:47.870Z,23.98
2023-05-01T10:48:33.407Z,24.29
2023-05-01T10:51:20.425Z,24.81
2023-05-01T10:53:48.520Z,25.92
2023-05-01T10:56:30.091Z,25.78
2023-05-01T10:58:58.969Z,26.00
2023-05-01T11:01:25.686Z,25.70
2023-05-01T11:03:52.309Z,25.42
2023-05-01T11:06:18.985Z,25.42
2023-05-01T11:08:46.529Z,24.11
2023-05-01T11:11:25.073Z,24.23
2023-05-01T11:14:01.624Z,24.98
2023-05-01T11:16:37.856Z,25.63
2023-05-01T11:19:04.885Z,26.61
2023-05-01T11:21:34.081Z,29.11
2023-05-01T11:24:04.215Z,31.08
2023-05-01T11:26:32.513Z,30.79
2023-05-01T11:28:59.904Z,29.62
2023-05-01T11:31:27.111Z,28.66
2023-05-01T11:33:56.504Z,29.78
2023-05-01T11:36:23.092Z,30.31
2023-05-01T11:38:53.578Z,30.29
2023-05-01T11:41:23.710Z,30.37
2023-05-01T11:43:58.221Z,29.86
2023-05-01T11:46:29.244Z,29.81
2023-05-01T11:48:56.771Z,29.44
2023-05-01T11:51:24.969Z,30.11
2023-05-01T11:53:59.566Z,30.26
2023-05-01T11:56:27.409Z,29.32
2023-05-01T11:58:55.121Z,28.30
2023-05-01T12:01:21.784Z,27.81
2023-05-01T12:03:48.573Z,26.44
2023-05-01T12:06:15.643Z,27.49
2023-05-01T12:08:47.521Z,27.29
2023-05-01T12:11:14.253Z,27.95
2023-05-01T12:13:41.929Z,28.20
2023-05-01T12:16:09.512Z,26.86
2023-05-01T12:18:36.310Z,27.66
2023-05-01T12:21:03.279Z,27.16
2023-05-01T12:23:31.410Z,28.54
2023-05-01T12:28:38.834Z,28.38
2023-05-01T12:31:06.248Z,27.75
2023-05-01T12:33:33.321Z,27.32
2023-05-01T12:36:09.299Z,27.04
2023-05-01T12:38:36.027Z,27.47
2023-05-01T12:41:02.745Z,26.59
2023-05-01T12:43:34.252Z,26.07
2023-05-01T12:46:10.325Z,25.92
2023-05-01T12:48:41.451Z,26.33
2023-05-01T12:51:17.936Z,26.13
2023-05-01T12:53:44.633Z,26.28
2023-05-01T12:56:24.050Z,26.26
2023-05-01T12:58:52.130Z,25.66
2023-05-01T13:01:29.903Z,25.09
2023-05-01T13:03:58.030Z,24.88
2023-05-01T13:06:32.497Z,24.75
2023-05-01T13:09:10.550Z,25.30
2023-05-01T13:11:37.862Z,25.60
2023-05-01T13:14:11.536Z,25.95
2023-05-01T13:16:46.415Z,25.69
2023-05-01T13:19:14.316Z,25.25
2023-05-01T13:21:50.408Z,25.80
2023-05-01T13:24:17.144Z,25.67
2023-05-01T13:26:45.155Z,26.32
2023-05-01T13:29:20.503Z,26.44
2023-05-01T13:31:47.126Z,26.50
2023-05-01T13:34:17.317Z,26.67
2023-05-01T13:36:44.232Z,27.07
2023-05-01T13:39:11.776Z,26.97
2023-05-01T13:41:42.356Z,26.88
2023-05-01T13:44:09.200Z,26.33
2023-05-01T13:46:36.209Z,25.40
2023-05-01T13:49:04.816Z,25.40
2023-05-01T13:51:32.609Z,25.57
2023-05-01T13:53:59.296Z,24.89
2023-05-01T13:56:26.184Z,25.28
2023-05-01T13:58:52.856Z,25.36
2023-05-01T14:01:20.810Z,25.65
2023-05-01T14:03:48.443Z,24.86
2023-05-01T14:06:16.295Z,24.43
2023-05-01T14:08:49.229Z,24.39
2023-05-01T14:11:16.329Z,24.77
2023-05-01T14:13:44.181Z,24.59
2023-05-01T14:16:23.090Z,24.49
2023-05-01T14:18:49.693Z,24.76
2023-05-01T14:21:17.099Z,24.97
2023-05-01T14:23:44.314Z,25.10
2023-05-01T14:26:11.829Z,25.32
2023-05-01T14:28:48.153Z,24.81
2023-05-01T14:31:25.406Z,23.93
2023-05-01T14:33:54.164Z,24.37
2023-05-01T14:36:23.334Z,24.85
2023-05-01T14:38:50.813Z,24.33
2023-05-01T14:41:18.203Z,24.54
2023-05-01T14:43:45.423Z,24.56
2023-05-01T14:46:12.831Z,24.54
2023-05-01T14:48:45.611Z,24.60
2023-05-01T14:51:12.631Z,24.78
2023-05-01T14:53:45.247Z,24.89
2023-05-01T14:56:14.950Z,25.00
2023-05-01T14:58:44.605Z,25.05
2023-05-01T15:01:11.349Z,25.36
2023-05-01T15:03:45.203Z,25.31
2023-05-01T15:06:12.048Z,25.23
2023-05-01T15:08:38.833Z,25.21
2023-05-01T15:11:16.445Z,25.20
2023-05-01T15:13:44.271Z,25.67
2023-05-01T15:16:13.912Z,24.87
2023-05-01T15:18:43.528Z,24.81
2023-05-01T15:21:10.393Z,24.19
2023-05-01T15:23:37.236Z,24.61
2023-05-01T15:26:03.973Z,24.51
2023-05-01T15:28:30.669Z,24.61
2023-05-01T15:30:57.241Z,24.53
2023-05-01T15:33:27.248Z,24.40
2023-05-01T15:35:54.047Z,24.16
2023-05-01T15:38:21.662Z,24.00
2023-05-01T15:40:50.098Z,24.33
2023-05-01T15:43:21.133Z,23.80
2023-05-01T15:45:47.837Z,23.31
2023-05-01T15:48:14.511Z,23.35
2023-05-01T15:50:43.333Z,23.66
2023-05-01T15:53:09.852Z,23.78
2023-05-01T15:55:43.842Z,24.13
2023-05-01T15:58:10.454Z,24.13
2023-05-01T16:00:39.633Z,23.58
2023-05-01T16:03:07.616Z,23.54
2023-05-01T16:05:36.625Z,23.35
2023-05-01T16:08:05.320Z,23.11
2023-05-01T16:10:36.903Z,22.57
2023-05-01T16:13:07.119Z,22.18
2023-05-01T16:15:34.059Z,22.27
2023-05-01T16:18:03.966Z,22.02
2023-05-01T16:20:35.031Z,21.99
2023-05-01T16:23:01.719Z,22.17
2023-05-01T16:25:28.309Z,21.98
2023-05-01T16:27:54.956Z,21.83
2023-05-01T16:30:24.629Z,22.05
2023-05-01T16:32:51.402Z,22.12
2023-05-01T16:35:21.050Z,21.98
2023-05-01T16:37:47.761Z,22.00
2023-05-01T16:40:18.084Z,21.92
2023-05-01T16:42:52.072Z,21.90
2023-05-01T16:45:19.520Z,22.12
2023-05-01T16:47:46.307Z,22.16
2023-05-01T16:50:14.058Z,22.36
2023-05-01T16:52:40.780Z,22.55
2023-05-01T16:55:07.911Z,22.11
2023-05-01T16:57:34.449Z,22.35
2023-05-01T17:00:01.521Z,22.54
2023-05-01T17:02:28.497Z,22.53
2023-05-01T17:04:55.174Z,22.33
2023-05-01T17:07:23.000Z,22.50
2023-05-01T17:09:49.644Z,22.60
2023-05-01T17:12:16.297Z,22.71
2023-05-01T17:14:42.964Z,22.73
2023-05-01T17:17:09.737Z,22.77
2023-05-01T17:19:38.950Z,22.76
2023-05-01T17:22:06.311Z,22.88
2023-05-01T17:24:33.116Z,22.57
2023-05-01T17:27:05.855Z,22.68
2023-05-01T17:29:32.575Z,22.73
2023-05-01T17:31:59.149Z,22.81
2023-05-01T17:34:25.794Z,22.82
2023-05-01T17:36:52.634Z,22.80
2023-05-01T17:39:21.696Z,22.88
2023-05-01T17:41:49.392Z,22.74
2023-05-01T17:44:16.239Z,22.76
2023-05-01T17:46:42.761Z,22.78
2023-05-01T17:49:10.363Z,22.89
2023-05-01T17:51:37.397Z,22.84
2023-05-01T17:54:04.096Z,22.69
2023-05-01T17:56:33.682Z,22.84
2023-05-01T17:59:03.207Z,22.54
2023-05-01T18:01:30.693Z,22.71
2023-05-01T18:03:57.993Z,22.43
2023-05-01T18:06:24.810Z,22.53
2023-05-01T18:08:52.332Z,22.49
2023-05-01T18:11:18.943Z,22.39
2023-05-01T18:13:48.663Z,22.15
2023-05-01T18:16:15.929Z,21.85
2023-05-01T18:18:42.771Z,21.95
2023-05-01T18:21:11.557Z,21.79
2023-05-01T18:23:38.727Z,21.51
2023-05-01T18:26:05.466Z,21.33
2023-05-01T18:28:33.498Z,21.10
2023-05-01T18:31:02.553Z,20.91
2023-05-01T18:33:31.274Z,21.21
2023-05-01T18:35:58.335Z,21.15
2023-05-01T18:38:26.363Z,20.68
2023-05-01T18:40:54.830Z,20.19
2023-05-01T18:43:21.506Z,20.11
2023-05-01T18:45:48.150Z,19.97
2023-05-01T18:48:22.770Z,19.77
2023-05-01T18:51:06.718Z,19.92
2023-05-01T18:53:34.911Z,19.44
2023-05-01T18:56:01.672Z,19.06
2023-05-01T18:58:28.242Z,19.22
2023-05-01T19:00:55.374Z,18.96
2023-05-01T19:03:21.989Z,18.87
2023-05-01T19:05:48.622Z,18.67
2023-05-01T19:08:15.209Z,18.75
2023-05-01T19:10:42.525Z,18.58
2023-05-01T19:13:09.114Z,18.37
2023-05-01T19:15:36.361Z,18.13
2023-05-01T19:18:05.829Z,17.99
2023-05-01T19:20:32.887Z,18.03
2023-05-01T19:22:59.905Z,17.92
2023-05-01T19:25:26.544Z,17.85
2023-05-01T19:27:53.115Z,17.92
2023-05-01T19:30:19.716Z,18.06
2023-05-01T19:32:46.751Z,17.93
2023-05-01T19:35:13.508Z,17.64
2023-05-01T19:37:42.484Z,17.34
2023-05-01T19:40:09.331Z,17.55
2023-05-01T19:42:36.560Z,17.34
2023-05-01T19:45:03.326Z,17.27
2023-05-01T19:47:29.911Z,17.52
2023-05-01T19:49:56.709Z,17.64
2023-05-01T19:52:23.505Z,17.86
2023-05-01T19:54:50.052Z,17.32
2023-05-01T19:57:17.369Z,17.47
2023-05-01T19:59:44.017Z,17.68
2023-05-01T20:02:10.740Z,17.85
2023-05-01T20:04:37.446Z,17.98
2023-05-01T20:07:04.731Z,17.81
2023-05-01T20:09:31.624Z,17.81
2023-05-01T20:11:58.240Z,17.74
2023-05-01T20:14:27.468Z,18.14
2023-05-01T20:16:54.112Z,18.16
2023-05-01T20:19:22.180Z,18.09
2023-05-01T20:21:58.963Z,17.85
2023-05-01T20:24:26.166Z,17.69
2023-05-01T20:26:55.904Z,17.52
2023-05-01T20:29:22.718Z,16.74
2023-05-01T20:31:51.707Z,16.93
2023-05-01T20:34:18.809Z,17.17
2023-05-01T20:36:45.424Z,17.27
2023-05-01T20:39:12.174Z,17.27
2023-05-01T20:41:38.736Z,17.05
2023-05-01T20:44:05.407Z,17.10
2023-05-01T20:46:32.050Z,17.44
2023-05-01T20:49:01.126Z,17.52
2023-05-01T20:51:27.670Z,17.28
2023-05-01T20:53:57.187Z,17.16
2023-05-01T20:56:23.922Z,16.97
2023-05-01T20:58:50.601Z,17.22
2023-05-01T21:01:17.178Z,17.24
2023-05-01T21:03:46.454Z,17.49
2023-05-01T21:06:16.040Z,17.28
2023-05-01T21:08:42.820Z,17.32
2023-05-01T21:11:09.417Z,17.15
2023-05-01T21:13:36.085Z,17.36
2023-05-01T21:16:02.839Z,17.34
2023-05-01T21:18:33.020Z,17.05
2023-05-01T21:21:01.986Z,17.13
2023-05-01T21:23:29.706Z,17.10
2023-05-01T21:25:56.458Z,16.85
2023-05-01T21:28:23.007Z,16.83
2023-05-01T21:30:49.810Z,16.90
2023-05-01T21:33:17.576Z,16.97
2023-05-01T21:35:50.367Z,16.72
2023-05-01T21:38:16.997Z,16.26
2023-05-01T21:40:46.130Z,16.60
2023-05-01T21:43:12.871Z,16.85
2023-05-01T21:45:42.632Z,16.82
2023-05-01T21:48:09.804Z,17.17
2023-05-01T21:50:38.090Z,17.40
2023-05-01T21:53:06.260Z,17.13
2023-05-01T21:55:33.587Z,17.18
2023-05-01T21:58:03.118Z,16.99
2023-05-01T22:00:30.281Z,16.83
2023-05-01T22:02:57.312Z,16.68
2023-05-01T22:05:24.043Z,16.67
2023-05-01T22:07:54.163Z,16.49
2023-05-01T22:10:24.018Z,16.38
2023-05-01T22:12:50.637Z,16.81
2023-05-01T22:15:20.474Z,16.99
2023-05-01T22:17:47.170Z,16.69
2023-05-01T22:20:13.824Z,16.44
2023-05-01T22:22:41.318Z,16.52
2023-05-01T22:25:08.618Z,16.61
2023-05-01T22:27:38.015Z,16.60
2023-05-01T22:30:07.398Z,16.45
2023-05-01T22:32:37.227Z,16.58
2023-05-01T22:35:04.071Z,16.55
2023-05-01T22:37:30.665Z,16.40
2023-05-01T22:39:57.521Z,16.78
2023-05-01T22:42:24.510Z,16.94
2023-05-01T22:44:51.124Z,16.93
2023-05-01T22:47:17.994Z,16.75
2023-05-01T22:49:44.680Z,16.67
2023-05-01T22:52:11.207Z,16.73
2023-05-01T22:54:37.792Z,16.64
2023-05-01T22:57:04.400Z,16.70
2023-05-01T22:59:31.277Z,16.47
2023-05-01T23:01:57.888Z,16.61
2023-05-01T23:04:24.558Z,16.36
2023-05-01T23:06:51.160Z,16.45
2023-05-01T23:09:17.975Z,16.65
2023-05-01T23:11:46.561Z,16.67
2023-05-01T23:14:16.172Z,16.70
2023-05-01T23:16:48.063Z,16.60
2023-05-01T23:19:22.153Z,16.62
2023-05-01T23:22:15.399Z,16.41
2023-05-01T23:24:48.288Z,16.25
2023-05-01T23:27:16.003Z,16.37
2023-05-01T23:29:46.484Z,16.14
2023-05-01T23:32:18.286Z,16.05
2023-05-01T23:34:44.895Z,15.79
2023-05-01T23:37:11.413Z,15.63
2023-05-01T23:39:38.058Z,15.69
2023-05-01T23:42:05.434Z,15.46
2023-05-01T23:44:31.989Z,15.49
2023-05-01T23:46:58.634Z,15.49
2023-05-01T23:49:25.438Z,15.55
2023-05-01T23:51:51.962Z,15.53
2023-05-01T23:54:18.586Z,15.45
2023-05-01T23:56:45.304Z,15.36
2023-05-01T23:59:11.994Z,15.59
